createdAt,value
2018-01-22T00:00:34.791Z,83.20
2018-01-22T00:03:02.694Z,82.30
2018-01-22T00:05:29.663Z,82.10
2018-01-22T00:07:57.486Z,81.90
2018-01-22T00:10:24.468Z,81.90
2018-01-22T00:12:51.442Z,81.70
2018-01-22T00:15:18.406Z,82.00
2018-01-22T00:17:46.151Z,82.30
2018-01-22T00:20:13.119Z,82.30
2018-01-22T00:22:40.105Z,82.50
2018-01-22T00:25:08.583Z,82.90
2018-01-22T00:27:35.555Z,82.80
2018-01-22T00:30:02.584Z,83.00
2018-01-22T00:32:30.551Z,83.20
2018-01-22T00:34:57.514Z,83.30
2018-01-22T00:37:24.575Z,83.30
2018-01-22T00:39:51.550Z,83.20
2018-01-22T00:42:18.523Z,83.40
2018-01-22T00:44:46.366Z,83.70
2018-01-22T00:47:13.424Z,83.70
2018-01-22T00:49:40.403Z,83.90
2018-01-22T00:52:07.365Z,84.00
2018-01-22T00:54:34.406Z,84.10
2018-01-22T00:57:01.472Z,84.20
2018-01-22T00:59:28.451Z,84.50
2018-01-22T01:01:56.191Z,84.70
2018-01-22T01:04:23.258Z,84.70
2018-01-22T01:06:50.226Z,84.80
2018-01-22T01:09:17.269Z,84.70
2018-01-22T01:11:44.243Z,85.10
2018-01-22T01:14:11.290Z,85.30
2018-01-22T01:16:38.354Z,85.50
2018-01-22T01:19:05.335Z,85.40
2018-01-22T01:21:32.375Z,85.20
2018-01-22T01:23:59.364Z,85.20
2018-01-22T01:26:26.335Z,85.20
2018-01-22T01:28:54.074Z,85.70
2018-01-22T01:31:21.135Z,85.20
2018-01-22T01:33:48.108Z,85.30
2018-01-22T01:36:15.088Z,85.30
2018-01-22T01:38:42.919Z,86.00
2018-01-22T01:41:09.978Z,85.20
2018-01-22T01:43:36.946Z,85.10
2018-01-22T01:46:03.918Z,85.00
2018-01-22T01:48:30.958Z,84.90
2018-01-22T01:50:57.930Z,84.90
2018-01-22T01:53:24.970Z,84.90
2018-01-22T01:55:52.030Z,84.80
2018-01-22T01:58:19.094Z,84.90
2018-01-22T02:00:46.071Z,85.00
2018-01-22T02:03:14.037Z,85.10
2018-01-22T02:05:41.090Z,85.20
2018-01-22T02:08:08.166Z,85.00
2018-01-22T02:10:35.132Z,85.20
2018-01-22T02:13:03.019Z,85.20
2018-01-22T02:15:29.995Z,85.40
2018-01-22T02:17:57.839Z,85.20
2018-01-22T02:20:24.891Z,85.60
2018-01-22T02:22:51.942Z,85.50
2018-01-22T02:25:18.914Z,85.70
2018-01-22T02:27:45.967Z,85.70
2018-01-22T02:30:13.038Z,85.80
2018-01-22T02:32:40.086Z,85.70
2018-01-22T02:35:07.153Z,85.80
2018-01-22T02:37:34.215Z,85.70
2018-01-22T02:40:01.192Z,86.00
2018-01-22T02:42:28.223Z,86.20
2018-01-22T02:44:55.288Z,86.30
2018-01-22T02:47:22.347Z,86.40
2018-01-22T02:49:49.402Z,86.60
2018-01-22T02:52:16.505Z,86.50
2018-01-22T02:54:43.438Z,86.40
2018-01-22T02:57:10.487Z,86.30
2018-01-22T02:59:37.463Z,86.40
2018-01-22T03:02:04.434Z,86.50
2018-01-22T03:04:31.462Z,86.50
2018-01-22T03:06:58.519Z,86.60
2018-01-22T03:09:25.490Z,86.60
2018-01-22T03:11:52.463Z,86.70
2018-01-22T03:14:19.492Z,86.90
2018-01-22T03:16:46.562Z,86.70
2018-01-22T03:19:13.544Z,86.70
2018-01-22T03:21:40.514Z,86.80
2018-01-22T03:24:07.499Z,86.80
2018-01-22T03:26:35.233Z,86.70
2018-01-22T03:29:02.215Z,86.70
2018-01-22T03:31:29.947Z,86.80
2018-01-22T03:33:56.922Z,86.80
2018-01-22T03:36:23.907Z,86.80
2018-01-22T03:38:51.651Z,87.60
2018-01-22T03:41:18.627Z,87.00
2018-01-22T03:43:45.647Z,86.90
2018-01-22T03:46:12.620Z,87.00
2018-01-22T03:48:39.599Z,86.80
2018-01-22T03:51:06.582Z,86.80
2018-01-22T03:53:34.319Z,86.90
2018-01-22T03:56:01.291Z,86.90
2018-01-22T03:58:28.268Z,86.80
2018-01-22T04:00:55.998Z,87.10
2018-01-22T04:03:23.051Z,86.90
2018-01-22T04:05:50.022Z,87.00
2018-01-22T04:08:17.030Z,87.10
2018-01-22T04:10:44.852Z,86.60
2018-01-22T04:13:11.918Z,86.60
2018-01-22T04:15:38.975Z,86.90
2018-01-22T04:18:06.035Z,87.00
2018-01-22T04:20:33.103Z,86.90
2018-01-22T04:23:00.571Z,86.90
2018-01-22T04:25:27.615Z,86.90
2018-01-22T04:27:54.683Z,87.00
2018-01-22T04:30:21.743Z,87.10
2018-01-22T04:32:48.798Z,87.00
2018-01-22T04:35:15.779Z,86.90
2018-01-22T04:37:42.742Z,86.90
2018-01-22T04:40:09.719Z,87.00
2018-01-22T04:42:36.734Z,87.20
2018-01-22T04:45:03.710Z,87.20
2018-01-22T04:47:30.682Z,87.30
2018-01-22T04:49:57.659Z,87.30
2018-01-22T04:52:25.490Z,87.30
2018-01-22T04:54:52.467Z,87.30
2018-01-22T04:57:19.515Z,87.20
2018-01-22T04:59:46.491Z,87.30
2018-01-22T05:02:13.454Z,87.30
2018-01-22T05:04:40.443Z,87.40
2018-01-22T05:07:08.183Z,87.40
2018-01-22T05:09:35.162Z,87.40
2018-01-22T05:12:02.156Z,87.40
2018-01-22T05:14:29.862Z,87.50
2018-01-22T05:16:56.907Z,87.40
2018-01-22T05:19:23.971Z,87.70
2018-01-22T05:21:50.943Z,87.70
2018-01-22T05:24:17.914Z,87.60
2018-01-22T05:26:44.891Z,87.50
2018-01-22T05:29:11.908Z,87.30
2018-01-22T05:31:38.882Z,87.40
2018-01-22T05:34:05.855Z,87.50
2018-01-22T05:36:32.874Z,87.40
2018-01-22T05:38:59.847Z,87.60
2018-01-22T05:41:26.831Z,87.50
2018-01-22T05:43:53.803Z,88.30
2018-01-22T05:46:20.774Z,87.60
2018-01-22T05:48:48.586Z,87.80
2018-01-22T05:51:15.558Z,87.80
2018-01-22T05:53:42.531Z,87.80
2018-01-22T05:56:09.508Z,88.00
2018-01-22T05:58:36.475Z,88.20
2018-01-22T06:01:04.230Z,88.20
2018-01-22T06:03:31.202Z,88.20
2018-01-22T06:05:58.162Z,88.30
2018-01-22T06:08:25.987Z,88.30
2018-01-22T06:10:52.959Z,88.30
2018-01-22T06:13:19.940Z,88.00
2018-01-22T06:15:46.918Z,87.90
2018-01-22T06:18:14.663Z,87.80
2018-01-22T06:20:41.626Z,87.80
2018-01-22T06:23:08.607Z,87.80
2018-01-22T06:25:36.347Z,87.90
2018-01-22T06:28:03.323Z,87.70
2018-01-22T06:30:30.354Z,87.60
2018-01-22T06:32:57.415Z,87.90
2018-01-22T06:35:24.387Z,88.10
2018-01-22T06:37:51.362Z,88.20
2018-01-22T06:40:18.472Z,88.10
2018-01-22T06:42:46.190Z,88.20
2018-01-22T06:45:13.150Z,88.20
2018-01-22T06:47:40.126Z,88.20
2018-01-22T06:50:07.098Z,88.30
2018-01-22T06:52:34.838Z,88.40
2018-01-22T06:55:01.816Z,88.30
2018-01-22T06:57:28.919Z,88.50
2018-01-22T06:59:56.627Z,88.20
2018-01-22T07:02:23.667Z,88.20
2018-01-22T07:04:50.773Z,88.10
2018-01-22T07:07:17.699Z,88.10
2018-01-22T07:09:44.674Z,88.20
2018-01-22T07:12:11.706Z,88.30
2018-01-22T07:14:38.766Z,88.20
2018-01-22T07:17:05.735Z,88.10
2018-01-22T07:19:32.710Z,88.10
2018-01-22T07:21:59.678Z,88.00
2018-01-22T07:24:26.656Z,88.00
2018-01-22T07:26:54.403Z,87.80
2018-01-22T07:29:21.438Z,87.80
2018-01-22T07:31:48.411Z,87.70
2018-01-22T07:34:15.394Z,87.70
2018-01-22T07:36:42.415Z,87.70
2018-01-22T07:39:09.386Z,87.60
2018-01-22T07:41:36.352Z,87.50
2018-01-22T07:44:03.392Z,87.70
2018-01-22T07:46:30.363Z,87.80
2018-01-22T07:48:57.402Z,87.70
2018-01-22T07:51:24.466Z,87.50
2018-01-22T07:53:51.528Z,87.70
2018-01-22T07:56:18.495Z,87.60
2018-01-22T07:58:45.474Z,87.60
2018-01-22T08:01:12.450Z,87.90
2018-01-22T08:03:40.283Z,87.90
2018-01-22T08:06:07.338Z,87.90
2018-01-22T08:08:34.307Z,88.00
2018-01-22T08:11:01.296Z,88.00
2018-01-22T08:13:29.027Z,88.80
2018-01-22T08:15:56.094Z,88.10
2018-01-22T08:18:23.063Z,88.00
2018-01-22T08:20:50.111Z,88.10
2018-01-22T08:23:17.078Z,88.20
2018-01-22T08:25:44.056Z,88.00
2018-01-22T08:28:11.027Z,88.40
2018-01-22T08:30:38.008Z,88.40
2018-01-22T08:33:06.675Z,88.10
2018-01-22T08:35:33.652Z,88.00
2018-01-22T08:38:01.487Z,88.40
2018-01-22T08:40:28.634Z,88.30
2018-01-22T08:42:55.702Z,88.40
2018-01-22T08:45:22.679Z,88.20
2018-01-22T08:47:49.718Z,88.30
2018-01-22T08:50:16.779Z,88.40
2018-01-22T08:52:43.747Z,88.50
2018-01-22T08:55:10.794Z,88.30
2018-01-22T08:57:37.775Z,88.40
2018-01-22T09:00:04.756Z,88.20
2018-01-22T09:02:31.775Z,88.10
2018-01-22T09:04:58.749Z,88.30
2018-01-22T09:07:25.792Z,88.50
2018-01-22T09:09:52.762Z,88.50
2018-01-22T09:12:19.746Z,88.70
2018-01-22T09:14:46.714Z,88.70
2018-01-22T09:17:14.564Z,88.50
2018-01-22T09:19:41.598Z,88.50
2018-01-22T09:22:08.574Z,88.40
2018-01-22T09:24:35.622Z,88.60
2018-01-22T09:27:02.615Z,88.50
2018-01-22T09:29:29.583Z,88.40
2018-01-22T09:31:56.563Z,88.60
2018-01-22T09:34:24.294Z,88.40
2018-01-22T09:36:51.280Z,88.40
2018-01-22T09:39:19.019Z,88.30
2018-01-22T09:41:45.994Z,88.30
2018-01-22T09:44:13.022Z,88.20
2018-01-22T09:46:40.083Z,88.30
2018-01-22T09:49:07.063Z,88.30
2018-01-22T09:51:34.104Z,88.30
2018-01-22T09:54:01.091Z,88.60
2018-01-22T09:56:28.115Z,88.70
2018-01-22T09:58:55.180Z,88.40
2018-01-22T10:01:22.243Z,88.60
2018-01-22T10:03:49.223Z,89.30
2018-01-22T10:06:16.191Z,88.50
2018-01-22T10:08:43.167Z,88.60
2018-01-22T10:11:10.914Z,88.00
2018-01-22T10:13:37.938Z,88.00
2018-01-22T10:16:05.639Z,88.60
2018-01-22T10:18:32.624Z,88.50
2018-01-22T10:20:59.590Z,88.20
2018-01-22T10:23:27.334Z,89.60
2018-01-22T10:25:54.303Z,88.90
2018-01-22T10:28:22.786Z,89.30
2018-01-22T10:30:49.759Z,88.60
2018-01-22T10:33:16.790Z,88.50
2018-01-22T10:35:43.842Z,88.60
2018-01-22T10:38:10.826Z,88.60
2018-01-22T10:40:37.870Z,88.60
2018-01-22T10:43:05.815Z,88.30
2018-01-22T10:45:33.626Z,88.60
2018-01-22T10:48:00.687Z,88.60
2018-01-22T10:50:27.667Z,88.70
2018-01-22T10:52:54.703Z,88.50
2018-01-22T10:55:21.767Z,88.50
2018-01-22T10:57:48.734Z,88.60
2018-01-22T11:00:15.715Z,88.70
2018-01-22T11:02:42.738Z,88.60
2018-01-22T11:05:09.807Z,88.90
2018-01-22T11:07:36.775Z,88.90
2018-01-22T11:10:03.752Z,88.90
2018-01-22T11:12:30.774Z,88.30
2018-01-22T11:14:57.835Z,88.40
2018-01-22T11:17:24.807Z,88.70
2018-01-22T11:19:51.847Z,89.00
2018-01-22T11:22:18.924Z,89.20
2018-01-22T11:24:45.894Z,88.70
2018-01-22T11:27:12.935Z,88.50
2018-01-22T11:29:39.998Z,88.60
2018-01-22T11:32:06.963Z,88.50
2018-01-22T11:34:34.006Z,88.40
2018-01-22T11:37:00.991Z,88.80
2018-01-22T11:39:27.975Z,88.10
2018-01-22T11:41:55.707Z,88.40
2018-01-22T11:44:22.678Z,88.40
2018-01-22T11:46:49.654Z,88.50
2018-01-22T11:49:16.627Z,88.10
2018-01-22T11:51:44.376Z,88.40
2018-01-22T11:54:11.415Z,88.40
2018-01-22T11:56:38.471Z,88.40
2018-01-22T11:59:05.531Z,88.70
2018-01-22T12:01:32.562Z,88.70
2018-01-22T12:03:59.479Z,88.50
2018-01-22T12:06:26.502Z,88.30
2018-01-22T12:08:53.566Z,88.20
2018-01-22T12:11:20.551Z,88.20
2018-01-22T12:13:47.586Z,87.90
2018-01-22T12:16:14.653Z,88.10
2018-01-22T12:18:41.624Z,87.80
2018-01-22T12:21:08.599Z,88.30
2018-01-22T12:23:36.334Z,87.80
2018-01-22T12:26:03.402Z,87.80
2018-01-22T12:28:30.455Z,87.90
2018-01-22T12:30:57.437Z,87.60
2018-01-22T12:33:24.471Z,87.70
2018-01-22T12:35:51.454Z,88.20
2018-01-22T12:38:18.499Z,88.90
2018-01-22T12:40:45.464Z,88.70
2018-01-22T12:43:12.448Z,88.80
2018-01-22T12:45:39.425Z,88.10
2018-01-22T12:48:07.246Z,88.10
2018-01-22T12:50:34.318Z,87.80
2018-01-22T12:53:01.968Z,88.10
2018-01-22T12:55:29.690Z,87.20
2018-01-22T12:57:57.586Z,86.80
2018-01-22T13:00:24.575Z,87.40
2018-01-22T13:02:51.659Z,87.50
2018-01-22T13:05:18.717Z,87.50
2018-01-22T13:07:45.779Z,87.30
2018-01-22T13:10:12.752Z,87.50
2018-01-22T13:12:39.803Z,87.40
2018-01-22T13:15:06.775Z,87.50
2018-01-22T13:17:33.755Z,87.30
2018-01-22T13:20:00.856Z,87.00
2018-01-22T13:22:28.666Z,86.60
2018-01-22T13:24:55.638Z,85.90
2018-01-22T13:27:22.675Z,86.80
2018-01-22T13:29:49.655Z,86.70
2018-01-22T13:32:16.684Z,86.90
2018-01-22T13:34:43.662Z,87.40
2018-01-22T13:37:10.626Z,87.30
2018-01-22T13:39:37.662Z,86.90
2018-01-22T13:42:04.643Z,87.20
2018-01-22T13:44:31.614Z,86.80
2018-01-22T13:46:58.578Z,87.10
2018-01-22T13:49:25.611Z,86.80
2018-01-22T13:51:52.578Z,87.30
2018-01-22T13:54:19.556Z,87.40
2018-01-22T13:56:48.030Z,86.60
2018-01-22T13:59:15.007Z,86.60
2018-01-22T14:01:42.023Z,86.80
2018-01-22T14:04:08.999Z,88.00
2018-01-22T14:06:36.039Z,87.60
2018-01-22T14:09:03.022Z,88.00
2018-01-22T14:11:30.064Z,88.00
2018-01-22T14:13:57.038Z,87.80
2018-01-22T14:16:24.082Z,88.30
2018-01-22T14:18:51.062Z,88.70
2018-01-22T14:21:18.097Z,88.60
2018-01-22T14:23:45.155Z,88.20
2018-01-22T14:26:12.127Z,88.60
2018-01-22T14:28:39.186Z,88.50
2018-01-22T14:31:06.165Z,88.80
2018-01-22T14:33:33.142Z,89.00
2018-01-22T14:36:00.884Z,89.30
2018-01-22T14:38:27.850Z,89.20
2018-01-22T14:40:54.831Z,89.50
2018-01-22T14:43:22.571Z,89.00
2018-01-22T14:45:49.550Z,88.00
2018-01-22T14:48:16.523Z,87.80
2018-01-22T14:50:43.539Z,87.80
2018-01-22T14:53:10.510Z,87.90
2018-01-22T14:55:37.491Z,87.70
2018-01-22T14:58:04.458Z,87.70
2018-01-22T15:00:31.443Z,88.00
2018-01-22T15:02:58.407Z,88.40
2018-01-22T15:05:25.491Z,88.30
2018-01-22T15:07:52.454Z,88.00
2018-01-22T15:10:19.434Z,88.00
2018-01-22T15:12:47.907Z,88.90
2018-01-22T15:15:14.891Z,88.80
2018-01-22T15:17:41.863Z,89.00
2018-01-22T15:20:09.602Z,89.30
2018-01-22T15:22:36.570Z,89.30
2018-01-22T15:25:03.534Z,89.30
2018-01-22T15:27:30.515Z,89.50
2018-01-22T15:29:58.344Z,89.60
2018-01-22T15:32:25.314Z,89.50
2018-01-22T15:34:52.287Z,89.80
2018-01-22T15:37:19.323Z,89.90
2018-01-22T15:39:46.292Z,89.90
2018-01-22T15:42:13.271Z,89.90
2018-01-22T15:44:40.294Z,89.90
2018-01-22T15:47:07.355Z,89.90
2018-01-22T15:49:34.326Z,89.90
2018-01-22T15:52:01.318Z,89.70
2018-01-22T15:54:28.282Z,89.70
2018-01-22T15:56:56.035Z,89.60
2018-01-22T15:59:22.995Z,89.60
2018-01-22T16:01:49.974Z,90.10
2018-01-22T16:04:17.707Z,89.70
2018-01-22T16:06:44.682Z,89.70
2018-01-22T16:09:11.650Z,89.70
2018-01-22T16:11:38.639Z,89.70
2018-01-22T16:14:06.451Z,89.80
2018-01-22T16:16:33.427Z,89.90
2018-01-22T16:19:00.471Z,90.00
2018-01-22T16:21:27.526Z,90.10
2018-01-22T16:23:54.503Z,90.10
2018-01-22T16:26:21.476Z,90.10
2018-01-22T16:28:48.507Z,90.20
2018-01-22T16:31:15.475Z,90.20
2018-01-22T16:33:42.451Z,90.20
2018-01-22T16:36:10.927Z,90.20
2018-01-22T16:38:37.902Z,90.20
2018-01-22T16:41:04.939Z,90.20
2018-01-22T16:43:31.926Z,90.20
2018-01-22T16:45:59.363Z,90.20
2018-01-22T16:48:26.311Z,90.20
2018-01-22T16:50:53.374Z,90.30
2018-01-22T16:53:20.519Z,90.20
2018-01-22T16:55:48.599Z,90.30
2018-01-22T16:58:16.047Z,90.30
2018-01-22T17:00:43.787Z,90.40
2018-01-22T17:03:10.771Z,90.40
2018-01-22T17:05:37.745Z,90.40
2018-01-22T17:08:05.488Z,90.40
2018-01-22T17:10:32.531Z,90.40
2018-01-22T17:12:59.823Z,90.40
2018-01-22T17:15:26.794Z,90.40
2018-01-22T17:17:54.531Z,90.40
2018-01-22T17:20:21.507Z,90.40
2018-01-22T17:22:48.480Z,90.40
2018-01-22T17:25:15.536Z,90.40
2018-01-22T17:27:42.559Z,90.40
2018-01-22T17:30:09.538Z,90.40
2018-01-22T17:32:36.578Z,90.50
2018-01-22T17:35:03.567Z,90.50
2018-01-22T17:37:30.539Z,90.50
2018-01-22T17:39:58.392Z,90.50
2018-01-22T17:42:25.430Z,90.50
2018-01-22T17:44:52.406Z,90.50
2018-01-22T17:47:19.447Z,90.50
2018-01-22T17:49:46.435Z,90.50
2018-01-22T17:52:13.398Z,90.40
2018-01-22T17:54:40.383Z,90.50
2018-01-22T17:57:08.119Z,90.50
2018-01-22T17:59:35.167Z,90.50
2018-01-22T18:02:02.167Z,90.50
2018-01-22T18:04:29.911Z,90.60
2018-01-22T18:06:56.955Z,90.50
2018-01-22T18:09:23.942Z,90.50
2018-01-22T18:11:50.975Z,90.50
2018-01-22T18:14:17.948Z,90.90
2018-01-22T18:16:44.927Z,90.60
2018-01-22T18:19:11.946Z,90.60
2018-01-22T18:21:39.015Z,90.60
2018-01-22T18:24:05.992Z,90.60
2018-01-22T18:26:33.042Z,90.70
2018-01-22T18:29:00.275Z,90.70
2018-01-22T18:31:28.048Z,90.60
2018-01-22T18:33:55.771Z,90.60
2018-01-22T18:36:22.750Z,90.60
2018-01-22T18:38:50.581Z,90.70
2018-01-22T18:41:17.571Z,90.60
2018-01-22T18:43:44.543Z,90.60
2018-01-22T18:46:11.527Z,90.60
2018-01-22T18:48:38.514Z,90.70
2018-01-22T18:51:05.575Z,90.70
2018-01-22T18:53:32.635Z,90.70
2018-01-22T18:55:59.800Z,90.70
2018-01-22T18:58:26.766Z,90.70
2018-01-22T19:00:53.748Z,90.70
2018-01-22T19:03:20.767Z,90.70
2018-01-22T19:05:47.762Z,90.60
2018-01-22T19:08:14.791Z,90.70
2018-01-22T19:10:41.852Z,90.70
2018-01-22T19:13:08.915Z,90.60
2018-01-22T19:15:35.975Z,90.70
2018-01-22T19:18:02.977Z,90.70
2018-01-22T19:20:29.932Z,90.70
2018-01-22T19:22:56.951Z,90.70
2018-01-22T19:25:23.921Z,90.90
2018-01-22T19:27:51.074Z,90.60
2018-01-22T19:30:18.047Z,90.70
2018-01-22T19:32:45.087Z,90.60
2018-01-22T19:35:12.059Z,90.70
2018-01-22T19:37:39.043Z,90.70
2018-01-22T19:40:06.009Z,90.70
2018-01-22T19:42:33.837Z,90.80
2018-01-22T19:45:00.880Z,90.70
2018-01-22T19:47:28.682Z,90.80
2018-01-22T19:49:55.641Z,90.80
2018-01-22T19:52:22.686Z,90.80
2018-01-22T19:54:49.660Z,90.80
2018-01-22T19:57:16.711Z,90.80
2018-01-22T19:59:43.679Z,90.90
2018-01-22T20:02:10.734Z,91.10
2018-01-22T20:04:37.791Z,91.10
2018-01-22T20:07:04.767Z,91.10
2018-01-22T20:09:31.764Z,91.00
2018-01-22T20:11:58.862Z,90.60
2018-01-22T20:14:25.928Z,90.20
2018-01-22T20:16:52.894Z,89.80
2018-01-22T20:19:19.948Z,90.00
2018-01-22T20:21:46.917Z,88.70
2018-01-22T20:24:13.967Z,88.70
2018-01-22T20:26:40.942Z,88.80
2018-01-22T20:29:09.103Z,88.70
2018-01-22T20:31:36.079Z,88.50
2018-01-22T20:34:03.143Z,88.50
2018-01-22T20:36:30.102Z,88.00
2018-01-22T20:38:57.079Z,87.90
2018-01-22T20:41:24.055Z,87.50
2018-01-22T20:43:51.801Z,87.00
2018-01-22T20:46:18.766Z,86.90
2018-01-22T20:48:45.795Z,86.50
2018-01-22T20:51:12.766Z,86.20
2018-01-22T20:53:39.810Z,85.70
2018-01-22T20:56:06.782Z,86.20
2018-01-22T20:58:33.839Z,87.40
2018-01-22T21:01:00.806Z,87.60
2018-01-22T21:03:27.785Z,87.60
2018-01-22T21:05:56.258Z,88.20
2018-01-22T21:08:23.237Z,87.60
2018-01-22T21:10:50.210Z,87.80
2018-01-22T21:13:18.386Z,87.90
2018-01-22T21:15:46.227Z,88.20
2018-01-22T21:18:13.295Z,88.20
2018-01-22T21:20:40.282Z,88.40
2018-01-22T21:23:07.255Z,88.40
2018-01-22T21:25:36.288Z,88.80
2018-01-22T21:28:04.998Z,88.80
2018-01-22T21:30:32.098Z,88.70
2018-01-22T21:32:59.074Z,88.40
2018-01-22T21:35:26.911Z,87.30
2018-01-22T21:37:53.963Z,87.30
2018-01-22T21:40:21.022Z,86.90
2018-01-22T21:42:48.195Z,86.30
2018-01-22T21:45:15.247Z,85.70
2018-01-22T21:47:42.307Z,84.90
2018-01-22T21:50:09.370Z,84.40
2018-01-22T21:52:36.339Z,84.00
2018-01-22T21:55:03.332Z,83.80
2018-01-22T21:57:30.342Z,83.60
2018-01-22T21:59:57.319Z,83.10
2018-01-22T22:02:24.355Z,83.60
2018-01-22T22:04:51.419Z,84.20
2018-01-22T22:07:18.396Z,83.20
2018-01-22T22:09:45.440Z,82.70
2018-01-22T22:12:12.503Z,82.10
2018-01-22T22:14:39.475Z,82.00
2018-01-22T22:17:06.454Z,81.60
2018-01-22T22:19:33.428Z,81.40
2018-01-22T22:22:01.177Z,80.70
2018-01-22T22:24:28.142Z,80.70
2018-01-22T22:26:55.167Z,80.10
2018-01-22T22:29:22.226Z,80.30
2018-01-22T22:31:49.206Z,80.10
2018-01-22T22:34:16.179Z,80.00
2018-01-22T22:36:43.202Z,79.60
2018-01-22T22:39:10.258Z,79.60
2018-01-22T22:41:37.319Z,79.50
2018-01-22T22:44:04.330Z,80.40
2018-01-22T22:46:32.166Z,79.80
2018-01-22T22:48:59.135Z,79.80
2018-01-22T22:51:26.178Z,80.40
2018-01-22T22:53:53.239Z,80.80
2018-01-22T22:56:20.211Z,80.80
2018-01-22T22:58:47.191Z,81.80
2018-01-22T23:01:14.162Z,80.60
2018-01-22T23:03:41.986Z,80.00
2018-01-22T23:06:09.047Z,79.90
2018-01-22T23:08:36.022Z,79.30
2018-01-22T23:11:02.990Z,79.00
2018-01-22T23:13:29.966Z,79.00
2018-01-22T23:15:56.935Z,79.00
2018-01-22T23:18:24.687Z,78.40
2018-01-22T23:20:51.647Z,78.40
2018-01-22T23:23:18.627Z,78.30
2018-01-22T23:25:46.363Z,78.20
2018-01-22T23:28:13.406Z,78.20
2018-01-22T23:30:40.391Z,78.20
2018-01-22T23:33:08.303Z,78.40
2018-01-22T23:35:36.134Z,78.60
2018-01-22T23:38:03.118Z,78.60
2018-01-22T23:40:30.850Z,79.10
2018-01-22T23:42:57.919Z,79.10
2018-01-22T23:45:24.978Z,80.50
2018-01-22T23:47:51.959Z,81.80
2018-01-22T23:50:18.939Z,80.50
2018-01-22T23:52:45.906Z,79.90
2018-01-22T23:55:13.642Z,79.80
2018-01-22T23:57:40.690Z,79.80
